createdAt,value
2018-03-19T00:02:13.970Z,97411.77
2018-03-19T00:04:41.337Z,97409.66
2018-03-19T00:07:07.908Z,97411.98
2018-03-19T00:09:34.141Z,97412.34
2018-03-19T00:12:00.451Z,97408.67
2018-03-19T00:14:26.777Z,97404.05
2018-03-19T00:16:53.006Z,97415.65
2018-03-19T00:19:19.268Z,97407.90
2018-03-19T00:21:45.625Z,97414.30
2018-03-19T00:24:11.915Z,97408.50
2018-03-19T00:26:38.204Z,97406.00
2018-03-19T00:29:04.648Z,97408.50
2018-03-19T00:31:30.931Z,97411.77
2018-03-19T00:33:57.313Z,97411.59
2018-03-19T00:36:23.814Z,97408.09
2018-03-19T00:38:50.294Z,97412.17
2018-03-19T00:41:16.565Z,97409.64
2018-03-19T00:43:43.070Z,97403.07
2018-03-19T00:46:09.604Z,97407.14
2018-03-19T00:48:35.959Z,97403.48
2018-03-19T00:51:02.472Z,97401.72
2018-03-19T00:53:28.748Z,97399.23
2018-03-19T00:55:55.016Z,97390.33
2018-03-19T00:58:21.296Z,97390.53
2018-03-19T01:00:47.560Z,97385.50
2018-03-19T01:03:13.829Z,97387.25
2018-03-19T01:05:40.072Z,97379.70
2018-03-19T01:08:06.336Z,97380.09
2018-03-19T01:10:32.593Z,97374.09
2018-03-19T01:12:58.840Z,97376.63
2018-03-19T01:15:25.076Z,97371.22
2018-03-19T01:17:51.344Z,97368.51
2018-03-19T01:20:17.587Z,97366.75
2018-03-19T01:22:43.824Z,97364.63
2018-03-19T01:25:10.067Z,97365.03
2018-03-19T01:27:36.308Z,97364.08
2018-03-19T01:30:02.607Z,97359.41
2018-03-19T01:32:28.837Z,97359.81
2018-03-19T01:34:55.112Z,97358.67
2018-03-19T01:37:21.351Z,97357.30
2018-03-19T01:39:47.615Z,97353.44
2018-03-19T01:42:13.844Z,97352.47
2018-03-19T01:44:40.078Z,97347.08
2018-03-19T01:47:06.333Z,97346.49
2018-03-19T01:49:32.552Z,97346.88
2018-03-19T01:51:58.804Z,97349.00
2018-03-19T01:54:25.044Z,97343.77
2018-03-19T01:56:51.342Z,97344.34
2018-03-19T01:59:17.577Z,97347.64
2018-03-19T02:01:43.856Z,97352.06
2018-03-19T02:04:10.088Z,97342.03
2018-03-19T02:06:36.332Z,97343.95
2018-03-19T02:09:02.635Z,97347.25
2018-03-19T02:11:28.868Z,97351.69
2018-03-19T02:13:55.150Z,97347.42
2018-03-19T02:16:21.392Z,97342.22
2018-03-19T02:18:47.660Z,97342.22
2018-03-19T02:21:13.900Z,97344.52
2018-03-19T02:23:40.160Z,97349.72
2018-03-19T02:26:06.395Z,97341.61
2018-03-19T02:28:32.627Z,97348.57
2018-03-19T02:30:58.886Z,97347.02
2018-03-19T02:33:25.132Z,97343.15
2018-03-19T02:35:51.404Z,97343.55
2018-03-19T02:38:17.632Z,97344.68
2018-03-19T02:40:44.139Z,97344.88
2018-03-19T02:43:10.733Z,97342.75
2018-03-19T02:45:37.036Z,97349.48
2018-03-19T02:48:04.364Z,97347.60
2018-03-19T02:50:30.593Z,97344.50
2018-03-19T02:52:56.846Z,97346.02
2018-03-19T02:55:23.120Z,97346.63
2018-03-19T02:57:49.385Z,97342.56
2018-03-19T03:00:15.641Z,97341.37
2018-03-19T03:02:41.908Z,97345.83
2018-03-19T03:05:08.159Z,97342.73
2018-03-19T03:07:34.438Z,97341.59
2018-03-19T03:10:00.674Z,97342.35
2018-03-19T03:12:26.935Z,97344.30
2018-03-19T03:14:53.171Z,97344.06
2018-03-19T03:17:19.404Z,97343.08
2018-03-19T03:19:45.656Z,97342.72
2018-03-19T03:22:11.896Z,97350.39
2018-03-19T03:24:38.164Z,97340.95
2018-03-19T03:27:04.392Z,97339.23
2018-03-19T03:29:30.666Z,97344.23
2018-03-19T03:31:56.894Z,97344.61
2018-03-19T03:34:23.146Z,97346.56
2018-03-19T03:36:49.403Z,97339.40
2018-03-19T03:39:15.660Z,97344.78
2018-03-19T03:41:41.917Z,97340.92
2018-03-19T03:44:08.191Z,97339.96
2018-03-19T03:46:34.469Z,97338.38
2018-03-19T03:49:00.705Z,97347.67
2018-03-19T03:51:26.996Z,97341.08
2018-03-19T03:53:53.228Z,97341.22
2018-03-19T03:56:19.497Z,97341.64
2018-03-19T03:58:45.767Z,97339.92
2018-03-19T04:01:12.020Z,97338.55
2018-03-19T04:03:38.249Z,97342.23
2018-03-19T04:06:04.571Z,97346.86
2018-03-19T04:08:30.838Z,97343.58
2018-03-19T04:10:57.089Z,97347.63
2018-03-19T04:13:23.356Z,97345.30
2018-03-19T04:15:49.612Z,97346.06
2018-03-19T04:18:15.880Z,97346.08
2018-03-19T04:20:42.113Z,97343.76
2018-03-19T04:23:08.368Z,97343.57
2018-03-19T04:25:34.596Z,97340.09
2018-03-19T04:28:00.856Z,97344.30
2018-03-19T04:30:27.113Z,97352.94
2018-03-19T04:32:53.340Z,97350.44
2018-03-19T04:35:19.596Z,97350.26
2018-03-19T04:37:45.836Z,97347.56
2018-03-19T04:40:12.086Z,97354.47
2018-03-19T04:42:38.351Z,97358.49
2018-03-19T04:45:04.611Z,97343.88
2018-03-19T04:47:30.883Z,97347.14
2018-03-19T04:49:57.132Z,97345.40
2018-03-19T04:52:23.364Z,97355.80
2018-03-19T04:54:49.595Z,97355.00
2018-03-19T04:57:15.854Z,97350.95
2018-03-19T04:59:42.088Z,97356.75
2018-03-19T05:02:08.344Z,97362.30
2018-03-19T05:04:34.601Z,97352.44
2018-03-19T05:07:00.869Z,97357.83
2018-03-19T05:09:27.118Z,97360.12
2018-03-19T05:11:53.364Z,97359.30
2018-03-19T05:14:19.614Z,97367.96
2018-03-19T05:16:45.851Z,97363.31
2018-03-19T05:19:12.101Z,97368.89
2018-03-19T05:21:38.344Z,97366.56
2018-03-19T05:24:04.616Z,97365.61
2018-03-19T05:26:30.900Z,97366.75
2018-03-19T05:28:57.161Z,97364.83
2018-03-19T05:31:23.448Z,97369.27
2018-03-19T05:33:49.752Z,97369.91
2018-03-19T05:36:16.004Z,97362.03
2018-03-19T05:38:42.249Z,97369.03
2018-03-19T05:41:08.512Z,97375.25
2018-03-19T05:43:34.748Z,97371.64
2018-03-19T05:46:01.031Z,97367.44
2018-03-19T05:48:27.300Z,97369.98
2018-03-19T05:50:53.603Z,97377.60
2018-03-19T05:53:19.816Z,97378.98
2018-03-19T05:55:46.092Z,97386.92
2018-03-19T05:58:12.348Z,97378.31
2018-03-19T06:00:38.576Z,97374.47
2018-03-19T06:03:04.843Z,97376.41
2018-03-19T06:05:31.076Z,97379.14
2018-03-19T06:07:57.328Z,97373.53
2018-03-19T06:10:23.549Z,97373.70
2018-03-19T06:12:49.805Z,97374.03
2018-03-19T06:15:16.044Z,97374.39
2018-03-19T06:17:42.296Z,97368.72
2018-03-19T06:20:08.537Z,97369.86
2018-03-19T06:22:34.775Z,97372.78
2018-03-19T06:25:01.020Z,97375.83
2018-03-19T06:27:27.248Z,97377.19
2018-03-19T06:29:53.489Z,97374.06
2018-03-19T06:32:19.725Z,97375.81
2018-03-19T06:34:45.971Z,97378.30
2018-03-19T06:37:12.192Z,97381.75
2018-03-19T06:39:38.440Z,97385.95
2018-03-19T06:42:04.665Z,97386.28
2018-03-19T06:44:30.923Z,97391.09
2018-03-19T06:46:57.183Z,97386.11
2018-03-19T06:49:23.452Z,97390.62
2018-03-19T06:51:49.696Z,97395.50
2018-03-19T06:54:15.955Z,97392.43
2018-03-19T06:56:42.252Z,97399.91
2018-03-19T06:59:08.479Z,97403.48
2018-03-19T07:01:34.738Z,97401.44
2018-03-19T07:04:00.975Z,97399.40
2018-03-19T07:06:27.247Z,97399.98
2018-03-19T07:08:53.489Z,97405.76
2018-03-19T07:11:19.735Z,97406.69
2018-03-19T07:13:45.959Z,97405.81
2018-03-19T07:16:12.184Z,97401.48
2018-03-19T07:18:38.432Z,97410.99
2018-03-19T07:21:04.679Z,97404.66
2018-03-19T07:23:30.944Z,97405.55
2018-03-19T07:25:57.177Z,97410.80
2018-03-19T07:28:23.443Z,97404.34
2018-03-19T07:30:49.679Z,97403.78
2018-03-19T07:33:15.952Z,97399.52
2018-03-19T07:35:42.215Z,97408.23
2018-03-19T07:38:08.457Z,97400.41
2018-03-19T07:40:34.717Z,97401.57
2018-03-19T07:43:00.947Z,97391.64
2018-03-19T07:45:27.212Z,97399.52
2018-03-19T07:47:53.453Z,97396.05
2018-03-19T07:50:19.703Z,97399.99
2018-03-19T07:52:45.932Z,97403.09
2018-03-19T07:55:12.181Z,97402.58
2018-03-19T07:57:38.403Z,97397.39
2018-03-19T08:00:04.668Z,97397.71
2018-03-19T08:02:30.908Z,97395.80
2018-03-19T08:04:57.140Z,97398.56
2018-03-19T08:07:23.392Z,97399.99
2018-03-19T08:09:49.624Z,97393.28
2018-03-19T08:12:15.931Z,97402.80
2018-03-19T08:14:42.129Z,97407.25
2018-03-19T08:17:08.373Z,97401.47
2018-03-19T08:19:34.599Z,97397.35
2018-03-19T08:22:00.843Z,97396.52
2018-03-19T08:24:27.059Z,97406.75
2018-03-19T08:27:00.488Z,97398.88
2018-03-19T08:29:26.716Z,97405.15
2018-03-19T08:31:52.941Z,97397.10
2018-03-19T08:34:19.190Z,97394.30
2018-03-19T08:36:45.421Z,97392.53
2018-03-19T08:39:11.678Z,97389.97
2018-03-19T08:41:37.924Z,97377.65
2018-03-19T08:44:04.228Z,97381.02
2018-03-19T08:46:30.468Z,97382.09
2018-03-19T08:48:56.729Z,97374.69
2018-03-19T08:51:22.952Z,97377.55
2018-03-19T08:53:49.182Z,97371.77
2018-03-19T08:56:15.415Z,97377.38
2018-03-19T08:58:41.640Z,97371.48
2018-03-19T09:01:07.977Z,97375.88
2018-03-19T09:03:34.200Z,97378.83
2018-03-19T09:06:00.481Z,97375.17
2018-03-19T09:08:26.732Z,97377.78
2018-03-19T09:10:52.980Z,97367.52
2018-03-19T09:13:19.251Z,97364.61
2018-03-19T09:15:45.512Z,97358.01
2018-03-19T09:18:11.763Z,97360.56
2018-03-19T09:20:37.990Z,97360.27
2018-03-19T09:23:04.262Z,97364.22
2018-03-19T09:25:30.549Z,97355.11
2018-03-19T09:27:56.844Z,97356.13
2018-03-19T09:30:23.100Z,97362.34
2018-03-19T09:32:49.376Z,97367.39
2018-03-19T09:35:15.692Z,97375.50
2018-03-19T09:37:41.913Z,97373.71
2018-03-19T09:40:08.168Z,97368.08
2018-03-19T09:42:34.480Z,97374.05
2018-03-19T09:45:00.724Z,97372.98
2018-03-19T09:47:26.959Z,97369.41
2018-03-19T09:49:53.216Z,97373.16
2018-03-19T09:52:19.460Z,97367.99
2018-03-19T09:54:45.684Z,97365.36
2018-03-19T09:57:11.937Z,97374.60
2018-03-19T09:59:38.168Z,97372.56
2018-03-19T10:02:04.443Z,97369.61
2018-03-19T10:04:30.675Z,97367.55
2018-03-19T10:06:56.926Z,97358.99
2018-03-19T10:09:23.158Z,97367.12
2018-03-19T10:11:49.430Z,97370.64
2018-03-19T10:14:15.660Z,97366.07
2018-03-19T10:16:41.892Z,97370.26
2018-03-19T10:19:08.148Z,97366.28
2018-03-19T10:21:34.400Z,97367.97
2018-03-19T10:24:00.652Z,97367.86
2018-03-19T10:26:26.892Z,97366.50
2018-03-19T10:28:53.168Z,97368.27
2018-03-19T10:31:19.413Z,97369.44
2018-03-19T10:33:45.684Z,97372.02
2018-03-19T10:36:11.920Z,97364.45
2018-03-19T10:38:38.217Z,97360.08
2018-03-19T10:41:04.489Z,97368.00
2018-03-19T10:43:30.724Z,97366.78
2018-03-19T10:45:56.968Z,97361.26
2018-03-19T10:48:23.204Z,97369.31
2018-03-19T10:50:49.465Z,97364.16
2018-03-19T10:53:15.701Z,97368.75
2018-03-19T10:55:41.955Z,97361.38
2018-03-19T10:58:08.212Z,97364.97
2018-03-19T11:00:34.478Z,97370.01
2018-03-19T11:03:05.709Z,97357.90
2018-03-19T11:05:31.997Z,97359.88
2018-03-19T11:08:04.216Z,97359.52
2018-03-19T11:10:30.464Z,97349.69
2018-03-19T11:12:56.741Z,97350.61
2018-03-19T11:15:24.146Z,97358.00
2018-03-19T11:17:50.440Z,97352.53
2018-03-19T11:20:16.692Z,97353.09
2018-03-19T11:22:42.956Z,97353.16
2018-03-19T11:25:09.208Z,97348.37
2018-03-19T11:27:35.508Z,97341.80
2018-03-19T11:30:01.785Z,97348.94
2018-03-19T11:32:28.089Z,97346.84
2018-03-19T11:34:54.368Z,97342.92
2018-03-19T11:37:20.614Z,97343.87
2018-03-19T11:39:46.868Z,97336.34
2018-03-19T11:42:13.109Z,97338.84
2018-03-19T11:44:39.376Z,97337.66
2018-03-19T11:47:05.624Z,97338.36
2018-03-19T11:49:31.863Z,97328.52
2018-03-19T11:51:58.114Z,97326.33
2018-03-19T11:54:24.361Z,97332.64
2018-03-19T11:56:50.642Z,97323.02
2018-03-19T11:59:16.891Z,97328.89
2018-03-19T12:01:43.136Z,97322.75
2018-03-19T12:04:09.365Z,97325.22
2018-03-19T12:06:35.618Z,97321.98
2018-03-19T12:09:01.865Z,97323.64
2018-03-19T12:11:28.095Z,97323.26
2018-03-19T12:13:54.357Z,97319.11
2018-03-19T12:16:20.576Z,97318.79
2018-03-19T12:18:46.869Z,97315.16
2018-03-19T12:21:13.115Z,97319.61
2018-03-19T12:23:39.416Z,97313.17
2018-03-19T12:26:05.667Z,97309.61
2018-03-19T12:28:31.940Z,97313.42
2018-03-19T12:30:58.155Z,97306.09
2018-03-19T12:33:24.400Z,97318.45
2018-03-19T12:35:50.675Z,97315.91
2018-03-19T12:38:16.957Z,97308.19
2018-03-19T12:40:43.233Z,97313.80
2018-03-19T12:43:09.489Z,97312.27
2018-03-19T12:45:35.740Z,97301.67
2018-03-19T12:48:01.964Z,97302.52
2018-03-19T12:50:28.229Z,97294.64
2018-03-19T12:52:54.468Z,97308.23
2018-03-19T12:55:20.718Z,97295.28
2018-03-19T12:57:46.980Z,97293.50
2018-03-19T13:00:13.224Z,97294.73
2018-03-19T13:02:39.521Z,97301.63
2018-03-19T13:05:05.798Z,97300.19
2018-03-19T13:07:32.052Z,97296.44
2018-03-19T13:09:58.291Z,97292.95
2018-03-19T13:12:24.563Z,97293.02
2018-03-19T13:14:50.810Z,97290.30
2018-03-19T13:17:17.096Z,97289.52
2018-03-19T13:19:43.349Z,97289.14
2018-03-19T13:22:09.588Z,97297.11
2018-03-19T13:24:35.890Z,97296.30
2018-03-19T13:27:02.117Z,97288.86
2018-03-19T13:29:28.384Z,97288.53
2018-03-19T13:31:54.648Z,97289.70
2018-03-19T13:34:20.898Z,97292.36
2018-03-19T13:36:47.132Z,97291.55
2018-03-19T13:39:13.372Z,97289.47
2018-03-19T13:41:39.623Z,97284.52
2018-03-19T13:44:05.890Z,97285.19
2018-03-19T13:46:32.160Z,97283.28
2018-03-19T13:48:58.396Z,97278.36
2018-03-19T13:51:24.652Z,97266.02
2018-03-19T13:53:50.900Z,97273.48
2018-03-19T13:56:17.140Z,97269.48
2018-03-19T13:58:43.359Z,97259.25
2018-03-19T14:01:09.620Z,97268.70
2018-03-19T14:03:35.897Z,97276.48
2018-03-19T14:06:02.141Z,97271.53
2018-03-19T14:08:28.397Z,97268.22
2018-03-19T14:10:54.632Z,97271.97
2018-03-19T14:13:20.888Z,97265.31
2018-03-19T14:15:47.160Z,97271.05
2018-03-19T14:18:13.432Z,97275.69
2018-03-19T14:20:39.667Z,97268.17
2018-03-19T14:23:05.940Z,97275.71
2018-03-19T14:25:32.208Z,97269.72
2018-03-19T14:27:58.523Z,97264.45
2018-03-19T14:30:24.751Z,97263.20
2018-03-19T14:32:51.002Z,97268.31
2018-03-19T14:35:17.260Z,97268.66
2018-03-19T14:37:43.492Z,97266.52
2018-03-19T14:40:09.748Z,97265.37
2018-03-19T14:42:35.980Z,97258.83
2018-03-19T14:45:02.230Z,97258.55
2018-03-19T14:47:28.473Z,97253.50
2018-03-19T14:49:54.746Z,97250.13
2018-03-19T14:52:20.986Z,97247.44
2018-03-19T14:54:47.260Z,97241.08
2018-03-19T14:57:13.511Z,97243.53
2018-03-19T14:59:39.760Z,97239.81
2018-03-19T15:02:06.062Z,97243.69
2018-03-19T15:04:32.332Z,97245.09
2018-03-19T15:06:58.599Z,97238.43
2018-03-19T15:09:24.831Z,97246.21
2018-03-19T15:11:51.085Z,97243.23
2018-03-19T15:14:17.336Z,97246.37
2018-03-19T15:16:43.604Z,97241.49
2018-03-19T15:19:09.841Z,97244.95
2018-03-19T15:21:36.063Z,97244.84
2018-03-19T15:24:02.328Z,97233.70
2018-03-19T15:26:28.555Z,97235.86
2018-03-19T15:28:54.820Z,97231.14
2018-03-19T15:31:21.090Z,97234.31
2018-03-19T15:33:47.342Z,97233.79
2018-03-19T15:36:13.604Z,97228.54
2018-03-19T15:38:39.876Z,97240.08
2018-03-19T15:41:06.105Z,97231.06
2018-03-19T15:43:32.342Z,97236.58
2018-03-19T15:45:58.605Z,97240.06
2018-03-19T15:48:24.840Z,97235.69
2018-03-19T15:50:51.102Z,97232.06
2018-03-19T15:53:17.333Z,97235.23
2018-03-19T15:55:43.580Z,97236.70
2018-03-19T15:58:09.830Z,97237.88
2018-03-19T16:00:36.097Z,97234.74
2018-03-19T16:03:02.336Z,97243.00
2018-03-19T16:05:28.571Z,97240.94
2018-03-19T16:07:54.841Z,97237.17
2018-03-19T16:10:21.072Z,97243.54
2018-03-19T16:12:47.332Z,97242.05
2018-03-19T16:15:13.569Z,97242.28
2018-03-19T16:17:39.841Z,97244.20
2018-03-19T16:20:06.065Z,97247.37
2018-03-19T16:22:32.336Z,97244.27
2018-03-19T16:24:58.564Z,97244.16
2018-03-19T16:27:24.811Z,97245.97
2018-03-19T16:29:51.096Z,97246.98
2018-03-19T16:32:17.320Z,97241.81
2018-03-19T16:34:43.580Z,97240.85
2018-03-19T16:37:09.816Z,97249.03
2018-03-19T16:39:36.068Z,97250.80
2018-03-19T16:42:02.324Z,97254.78
2018-03-19T16:44:28.542Z,97260.69
2018-03-19T16:46:54.824Z,97267.09
2018-03-19T16:49:21.061Z,97267.33
2018-03-19T16:51:47.333Z,97271.66
2018-03-19T16:54:13.553Z,97270.25
2018-03-19T16:56:39.803Z,97270.69
2018-03-19T16:59:06.020Z,97275.57
2018-03-19T17:01:32.286Z,97273.05
2018-03-19T17:03:58.520Z,97275.96
2018-03-19T17:06:24.764Z,97274.88
2018-03-19T17:08:51.023Z,97275.30
2018-03-19T17:11:17.257Z,97276.12
2018-03-19T17:13:43.525Z,97279.05
2018-03-19T17:16:09.780Z,97278.53
2018-03-19T17:18:36.041Z,97281.15
2018-03-19T17:21:02.301Z,97279.77
2018-03-19T17:23:28.572Z,97282.02
2018-03-19T17:25:54.836Z,97281.99
2018-03-19T17:28:21.092Z,97283.72
2018-03-19T17:30:47.343Z,97287.73
2018-03-19T17:33:13.592Z,97292.57
2018-03-19T17:35:39.860Z,97294.43
2018-03-19T17:38:06.108Z,97296.73
2018-03-19T17:40:32.388Z,97294.23
2018-03-19T17:42:58.649Z,97296.30
2018-03-19T17:45:24.920Z,97295.03
2018-03-19T17:47:51.152Z,97301.10
2018-03-19T17:50:17.383Z,97303.83
2018-03-19T17:52:43.640Z,97305.69
2018-03-19T17:55:09.880Z,97312.52
2018-03-19T17:57:36.128Z,97319.98
2018-03-19T18:00:02.433Z,97317.77
2018-03-19T18:02:28.668Z,97319.86
2018-03-19T18:04:54.944Z,97321.36
2018-03-19T18:07:21.208Z,97322.76
2018-03-19T18:09:47.449Z,97325.17
2018-03-19T18:12:13.709Z,97331.61
2018-03-19T18:14:39.944Z,97333.01
2018-03-19T18:17:06.218Z,97332.72
2018-03-19T18:19:32.475Z,97330.20
2018-03-19T18:21:58.779Z,97332.99
2018-03-19T18:24:25.015Z,97330.86
2018-03-19T18:26:51.341Z,97339.32
2018-03-19T18:29:17.596Z,97344.19
2018-03-19T18:31:43.829Z,97341.84
2018-03-19T18:34:10.122Z,97339.41
2018-03-19T18:36:36.396Z,97345.80
2018-03-19T18:39:02.753Z,97354.58
2018-03-19T18:41:28.996Z,97355.86
2018-03-19T18:43:55.297Z,97352.71
2018-03-19T18:46:21.556Z,97358.47
2018-03-19T18:48:47.821Z,97357.34
2018-03-19T18:51:14.273Z,97360.94
2018-03-19T18:53:40.541Z,97364.70
2018-03-19T18:56:06.819Z,97360.64
2018-03-19T18:58:33.053Z,97360.88
2018-03-19T19:00:59.356Z,97360.91
2018-03-19T19:03:25.667Z,97358.45
2018-03-19T19:05:51.951Z,97362.96
2018-03-19T19:08:18.180Z,97361.00
2018-03-19T19:10:44.440Z,97365.80
2018-03-19T19:13:10.672Z,97359.72
2018-03-19T19:15:36.870Z,97366.24
2018-03-19T19:18:03.132Z,97370.03
2018-03-19T19:20:29.379Z,97365.19
2018-03-19T19:22:55.664Z,97366.19
2018-03-19T19:25:21.921Z,97356.96
2018-03-19T19:27:48.184Z,97354.41
2018-03-19T19:30:14.444Z,97352.88
2018-03-19T19:32:40.708Z,97358.53
2018-03-19T19:35:06.960Z,97358.25
2018-03-19T19:37:33.232Z,97360.80
2018-03-19T19:39:59.464Z,97362.89
2018-03-19T19:42:25.717Z,97360.24
2018-03-19T19:44:51.968Z,97355.64
2018-03-19T19:47:18.224Z,97356.28
2018-03-19T19:49:44.482Z,97356.75
2018-03-19T19:52:10.716Z,97364.08
2018-03-19T19:54:36.993Z,97365.17
2018-03-19T19:57:03.261Z,97364.30
2018-03-19T19:59:29.532Z,97357.61
2018-03-19T20:01:55.813Z,97357.66
2018-03-19T20:04:22.084Z,97359.82
2018-03-19T20:06:48.344Z,97354.66
2018-03-19T20:09:14.586Z,97361.70
2018-03-19T20:11:40.853Z,97361.76
2018-03-19T20:14:07.100Z,97358.31
2018-03-19T20:16:33.388Z,97366.00
2018-03-19T20:18:59.647Z,97362.95
2018-03-19T20:21:26.048Z,97367.89
2018-03-19T20:23:52.417Z,97361.97
2018-03-19T20:26:18.745Z,97358.97
2018-03-19T20:28:44.988Z,97357.13
2018-03-19T20:31:11.273Z,97356.66
2018-03-19T20:33:37.549Z,97355.31
2018-03-19T20:36:03.903Z,97357.30
2018-03-19T20:38:30.192Z,97352.86
2018-03-19T20:40:56.910Z,97354.04
2018-03-19T20:43:23.177Z,97354.13
2018-03-19T20:45:49.465Z,97356.42
2018-03-19T20:48:15.728Z,97349.56
2018-03-19T20:50:42.002Z,97354.71
2018-03-19T20:53:08.273Z,97354.39
2018-03-19T20:55:34.545Z,97344.37
2018-03-19T20:58:00.832Z,97346.00
2018-03-19T21:00:27.091Z,97348.94
2018-03-19T21:02:53.351Z,97348.06
2018-03-19T21:05:19.636Z,97341.71
2018-03-19T21:07:45.885Z,97344.55
2018-03-19T21:10:12.200Z,97336.67
2018-03-19T21:12:38.469Z,97337.12
2018-03-19T21:15:04.740Z,97339.47
2018-03-19T21:17:31.004Z,97337.58
2018-03-19T21:19:57.347Z,97331.02
2018-03-19T21:22:23.599Z,97336.31
2018-03-19T21:24:49.857Z,97333.23
2018-03-19T21:27:16.200Z,97326.30
2018-03-19T21:29:42.441Z,97326.72
2018-03-19T21:32:08.672Z,97331.04
2018-03-19T21:34:34.939Z,97328.32
2018-03-19T21:37:01.208Z,97328.13
2018-03-19T21:39:27.497Z,97328.00
2018-03-19T21:41:54.760Z,97326.09
2018-03-19T21:44:21.020Z,97325.37
2018-03-19T21:46:47.277Z,97319.92
2018-03-19T21:49:13.568Z,97320.53
2018-03-19T21:51:39.837Z,97316.27
2018-03-19T21:54:06.107Z,97316.34
2018-03-19T21:56:32.428Z,97310.33
2018-03-19T21:58:58.672Z,97305.01
2018-03-19T22:01:25.158Z,97308.20
2018-03-19T22:03:51.425Z,97302.44
2018-03-19T22:06:17.735Z,97303.23
2018-03-19T22:08:43.988Z,97310.67
2018-03-19T22:11:10.251Z,97301.38
2018-03-19T22:13:36.615Z,97306.47
2018-03-19T22:16:02.920Z,97305.12
2018-03-19T22:18:29.277Z,97308.11
2018-03-19T22:20:55.560Z,97306.03
2018-03-19T22:23:21.825Z,97307.00
2018-03-19T22:25:48.278Z,97304.72
2018-03-19T22:28:14.551Z,97304.52
2018-03-19T22:30:40.832Z,97306.10
2018-03-19T22:33:07.096Z,97308.62
2018-03-19T22:35:33.329Z,97316.23
2018-03-19T22:37:59.811Z,97309.45
2018-03-19T22:40:26.051Z,97306.35
2018-03-19T22:42:52.319Z,97309.91
2018-03-19T22:45:18.710Z,97304.87
2018-03-19T22:47:44.945Z,97305.30
2018-03-19T22:50:11.353Z,97302.78
2018-03-19T22:52:37.601Z,97302.98
2018-03-19T22:55:03.876Z,97298.92
2018-03-19T22:57:30.324Z,97298.57
2018-03-19T22:59:56.576Z,97298.20
2018-03-19T23:02:22.827Z,97299.23
2018-03-19T23:04:55.973Z,97296.95
2018-03-19T23:07:22.210Z,97298.33
2018-03-19T23:09:48.600Z,97301.42
2018-03-19T23:12:14.855Z,97294.89
2018-03-19T23:14:41.138Z,97293.73
2018-03-19T23:17:07.433Z,97290.25
2018-03-19T23:19:33.670Z,97290.14
2018-03-19T23:22:00.102Z,97291.31
2018-03-19T23:24:26.383Z,97294.42
2018-03-19T23:26:52.625Z,97290.55
2018-03-19T23:29:18.896Z,97288.42
2018-03-19T23:31:45.131Z,97290.01
2018-03-19T23:34:11.502Z,97292.38
2018-03-19T23:36:37.756Z,97289.29
2018-03-19T23:39:04.052Z,97290.45
2018-03-19T23:41:30.468Z,97288.31
2018-03-19T23:43:56.743Z,97287.16
2018-03-19T23:46:23.002Z,97293.13
2018-03-19T23:48:49.289Z,97291.19
2018-03-19T23:51:15.570Z,97293.56
2018-03-19T23:53:41.998Z,97287.02
2018-03-19T23:56:08.251Z,97283.38
2018-03-19T23:58:34.500Z,97283.00
